createdAt,value
2023-04-15T00:02:51.610Z,2.50
2023-04-15T00:06:34.369Z,2.43
2023-04-15T00:10:16.999Z,2.90
2023-04-15T00:14:01.047Z,3.20
2023-04-15T00:17:43.692Z,3.17
2023-04-15T00:21:27.543Z,3.40
2023-04-15T00:25:10.527Z,3.07
2023-04-15T00:28:53.170Z,2.87
2023-04-15T00:32:37.182Z,2.47
2023-04-15T00:36:19.797Z,2.83
2023-04-15T00:40:04.970Z,3.30
2023-04-15T00:43:48.029Z,2.90
2023-04-15T00:47:34.195Z,3.40
2023-04-15T00:51:18.269Z,3.53
2023-04-15T00:55:01.212Z,2.90
2023-04-15T00:58:43.853Z,2.80
2023-04-15T01:02:27.407Z,3.10
2023-04-15T01:06:10.293Z,2.90
2023-04-15T01:09:54.471Z,3.30
2023-04-15T01:13:37.667Z,3.17
2023-04-15T01:17:20.871Z,3.57
2023-04-15T01:21:03.725Z,3.27
2023-04-15T01:24:56.963Z,3.17
2023-04-15T01:28:40.987Z,3.67
2023-04-15T01:32:23.643Z,3.73
2023-04-15T01:36:08.491Z,3.07
2023-04-15T01:39:51.728Z,3.23
2023-04-15T01:43:34.392Z,3.20
2023-04-15T01:47:18.591Z,3.70
2023-04-15T01:51:01.443Z,3.40
2023-04-15T01:54:44.126Z,3.27
2023-04-15T01:58:27.274Z,3.40
2023-04-15T02:02:10.593Z,3.10
2023-04-15T02:05:54.672Z,3.40
2023-04-15T02:09:39.789Z,3.10
2023-04-15T02:13:22.480Z,3.90
2023-04-15T02:17:07.441Z,3.30
2023-04-15T02:20:50.654Z,3.07
2023-04-15T02:24:36.002Z,3.57
2023-04-15T02:28:18.667Z,3.57
2023-04-15T02:32:01.417Z,3.47
2023-04-15T02:35:45.383Z,2.90
2023-04-15T02:39:28.096Z,3.07
2023-04-15T02:43:12.292Z,3.40
2023-04-15T02:46:54.960Z,3.10
2023-04-15T02:50:39.846Z,3.00
2023-04-15T02:54:23.782Z,3.23
2023-04-15T02:58:06.478Z,3.50
2023-04-15T03:01:50.602Z,2.83
2023-04-15T03:05:33.430Z,3.40
2023-04-15T03:09:16.064Z,3.40
2023-04-15T03:12:58.685Z,3.03
2023-04-15T03:16:41.366Z,3.03
2023-04-15T03:20:25.483Z,2.83
2023-04-15T03:24:08.158Z,3.00
2023-04-15T03:27:51.055Z,3.13
2023-04-15T03:31:33.920Z,3.10
2023-04-15T03:35:17.058Z,2.90
2023-04-15T03:39:02.245Z,3.00
2023-04-15T03:42:45.180Z,2.97
2023-04-15T03:46:27.916Z,2.53
2023-04-15T03:50:11.188Z,2.67
2023-04-15T03:53:53.945Z,2.90
2023-04-15T03:57:39.045Z,2.80
2023-04-15T04:01:22.040Z,2.70
2023-04-15T04:05:05.053Z,2.77
2023-04-15T04:08:47.717Z,2.73
2023-04-15T04:12:30.626Z,2.57
2023-04-15T04:16:14.699Z,2.60
2023-04-15T04:19:57.452Z,2.20
2023-04-15T04:23:40.150Z,2.60
2023-04-15T04:27:22.789Z,2.40
2023-04-15T04:31:05.550Z,2.50
2023-04-15T04:34:49.540Z,2.73
2023-04-15T04:38:32.186Z,2.60
2023-04-15T04:42:14.886Z,2.50
2023-04-15T04:45:57.566Z,2.50
2023-04-15T04:49:40.985Z,2.40
2023-04-15T04:53:25.062Z,2.40
2023-04-15T04:57:08.609Z,2.77
2023-04-15T05:00:51.878Z,2.60
2023-04-15T05:04:34.660Z,2.50
2023-04-15T05:08:17.520Z,2.63
2023-04-15T05:12:01.558Z,2.30
2023-04-15T05:15:44.893Z,2.30
2023-04-15T05:19:27.604Z,2.20
2023-04-15T05:23:10.268Z,2.20
2023-04-15T05:26:52.894Z,2.30
2023-04-15T05:30:36.938Z,2.47
2023-04-15T05:34:19.759Z,2.00
2023-04-15T05:38:02.400Z,2.13
2023-04-15T05:41:45.127Z,1.97
2023-04-15T05:45:27.737Z,1.87
2023-04-15T05:49:12.050Z,1.70
2023-04-15T05:52:54.728Z,1.87
2023-04-15T05:56:37.420Z,1.73
2023-04-15T06:00:21.238Z,2.00
2023-04-15T06:04:03.981Z,1.90
2023-04-15T06:07:48.701Z,1.90
2023-04-15T06:11:31.511Z,2.00
2023-04-15T06:15:14.147Z,1.80
2023-04-15T06:18:56.827Z,1.80
2023-04-15T06:22:39.826Z,1.80
2023-04-15T06:26:23.812Z,1.90
2023-04-15T06:30:08.072Z,1.90
2023-04-15T06:33:50.767Z,2.00
2023-04-15T06:37:33.390Z,1.80
2023-04-15T06:41:16.273Z,1.67
2023-04-15T06:45:00.418Z,1.70
2023-04-15T06:48:43.051Z,1.50
2023-04-15T06:52:26.112Z,1.60
2023-04-15T06:56:09.580Z,1.80
2023-04-15T06:59:54.577Z,1.60
2023-04-15T07:03:38.994Z,1.60
2023-04-15T07:07:21.620Z,1.30
2023-04-15T07:11:04.269Z,1.97
2023-04-15T07:14:47.167Z,1.80
2023-04-15T07:18:29.853Z,1.87
2023-04-15T07:22:14.129Z,1.47
2023-04-15T07:25:57.015Z,1.63
2023-04-15T07:29:39.681Z,1.60
2023-04-15T07:33:22.535Z,2.13
2023-04-15T07:37:05.328Z,1.60
2023-04-15T07:40:49.590Z,1.67
2023-04-15T07:44:32.490Z,1.50
2023-04-15T07:48:15.122Z,1.60
2023-04-15T07:51:57.796Z,1.40
2023-04-15T07:55:40.541Z,1.50
2023-04-15T07:59:24.577Z,1.60
2023-04-15T08:03:07.753Z,1.80
2023-04-15T08:06:50.548Z,1.90
2023-04-15T08:10:33.188Z,1.40
2023-04-15T08:14:15.970Z,1.83
2023-04-15T08:18:00.727Z,1.80
2023-04-15T08:21:43.410Z,1.80
2023-04-15T08:25:26.277Z,1.77
2023-04-15T08:29:09.145Z,1.50
2023-04-15T08:32:52.237Z,1.70
2023-04-15T08:36:36.753Z,2.03
2023-04-15T08:40:19.495Z,1.73
2023-04-15T08:44:05.402Z,2.10
2023-04-15T08:47:49.965Z,1.40
2023-04-15T08:51:33.717Z,1.77
2023-04-15T08:55:17.890Z,1.93
2023-04-15T08:59:01.092Z,2.00
2023-04-15T09:02:44.362Z,2.20
2023-04-15T09:06:27.312Z,2.27
2023-04-15T09:10:11.695Z,2.50
2023-04-15T09:13:55.746Z,2.40
2023-04-15T09:17:43.580Z,2.10
2023-04-15T09:21:26.337Z,2.40
2023-04-15T09:25:28.030Z,2.30
2023-04-15T09:29:13.521Z,2.30
2023-04-15T09:32:57.636Z,2.87
2023-04-15T09:36:54.002Z,2.53
2023-04-15T09:40:37.838Z,2.67
2023-04-15T09:44:25.185Z,2.50
2023-04-15T09:48:20.761Z,4.23
2023-04-15T09:52:06.018Z,3.20
2023-04-15T09:55:51.454Z,3.63
2023-04-15T09:59:35.647Z,3.80
2023-04-15T10:03:21.140Z,4.30
2023-04-15T10:07:05.144Z,3.57
2023-04-15T10:10:48.391Z,2.97
2023-04-15T10:14:35.601Z,3.07
2023-04-15T10:18:20.960Z,4.00
2023-04-15T10:22:03.729Z,3.43
2023-04-15T10:25:47.478Z,3.50
2023-04-15T10:29:30.401Z,4.10
2023-04-15T10:33:14.684Z,4.57
2023-04-15T10:36:57.863Z,4.00
2023-04-15T10:40:41.082Z,4.10
2023-04-15T10:44:23.874Z,4.97
2023-04-15T10:48:08.740Z,3.93
2023-04-15T10:51:54.565Z,4.37
2023-04-15T10:55:37.236Z,4.03
2023-04-15T10:59:21.404Z,3.80
2023-04-15T11:03:08.032Z,4.00
2023-04-15T11:07:07.983Z,3.70
2023-04-15T11:10:57.398Z,3.90
2023-04-15T11:14:41.418Z,4.20
2023-04-15T11:18:25.568Z,4.13
2023-04-15T11:22:10.579Z,4.67
2023-04-15T11:25:53.206Z,4.20
2023-04-15T11:29:36.532Z,4.50
2023-04-15T11:33:19.308Z,4.77
2023-04-15T11:37:03.616Z,4.33
2023-04-15T11:40:47.725Z,4.10
2023-04-15T11:44:30.433Z,4.07
2023-04-15T11:48:16.288Z,4.40
2023-04-15T11:51:58.994Z,4.33
2023-04-15T11:55:47.282Z,4.60
2023-04-15T11:59:45.495Z,4.40
2023-04-15T12:03:30.988Z,4.50
2023-04-15T12:07:13.889Z,4.17
2023-04-15T12:11:01.605Z,4.33
2023-04-15T12:14:44.784Z,4.37
2023-04-15T12:18:27.485Z,4.50
2023-04-15T12:22:11.544Z,4.50
2023-04-15T12:25:54.149Z,4.30
2023-04-15T12:29:40.122Z,4.70
2023-04-15T12:33:22.726Z,4.50
2023-04-15T12:37:09.461Z,4.70
2023-04-15T12:40:52.177Z,4.07
2023-04-15T12:44:37.140Z,4.27
2023-04-15T12:48:21.280Z,4.30
2023-04-15T12:52:04.654Z,3.53
2023-04-15T12:55:47.303Z,3.10
2023-04-15T12:59:30.029Z,3.10
2023-04-15T13:03:12.700Z,2.70
2023-04-15T13:06:56.888Z,2.70
2023-04-15T13:10:39.635Z,2.60
2023-04-15T13:14:22.342Z,3.00
2023-04-15T13:18:08.416Z,2.57
2023-04-15T13:21:51.060Z,2.80
2023-04-15T13:25:35.016Z,3.40
2023-04-15T13:29:17.606Z,3.60
2023-04-15T13:33:00.662Z,3.30
2023-04-15T13:36:43.351Z,3.30
2023-04-15T13:40:26.334Z,13.33
2023-04-15T13:44:13.535Z,4.13
2023-04-15T13:47:56.791Z,3.60
2023-04-15T13:51:40.520Z,3.90
2023-04-15T13:55:25.471Z,3.83
2023-04-15T13:59:10.438Z,3.70
2023-04-15T14:02:53.238Z,3.70
2023-04-15T14:06:35.989Z,3.73
2023-04-15T14:10:18.775Z,5.50
2023-04-15T14:14:01.427Z,3.40
2023-04-15T14:17:45.550Z,3.67
2023-04-15T14:21:29.972Z,3.90
2023-04-15T14:25:23.141Z,3.30
2023-04-15T14:29:13.397Z,3.40
2023-04-15T14:32:57.502Z,2.90
2023-04-15T14:36:41.703Z,3.00
2023-04-15T14:40:24.447Z,2.93
2023-04-15T14:44:09.683Z,3.10
2023-04-15T14:47:53.185Z,2.80
2023-04-15T14:51:37.327Z,3.13
2023-04-15T14:55:20.401Z,3.23
2023-04-15T14:59:03.274Z,3.00
2023-04-15T15:02:47.482Z,3.20
2023-04-15T15:06:30.329Z,3.40
2023-04-15T15:10:14.353Z,3.70
2023-04-15T15:13:57.043Z,3.80
2023-04-15T15:17:39.760Z,3.83
2023-04-15T15:21:22.458Z,3.90
2023-04-15T15:25:05.747Z,3.17
2023-04-15T15:28:50.714Z,3.90
2023-04-15T15:32:33.462Z,3.83
2023-04-15T15:36:16.119Z,4.20
2023-04-15T15:39:58.854Z,4.73
2023-04-15T15:43:41.559Z,3.70
2023-04-15T15:47:26.548Z,4.67
2023-04-15T15:51:09.241Z,4.40
2023-04-15T15:54:51.910Z,4.63
2023-04-15T15:58:34.675Z,4.10
2023-04-15T16:02:17.384Z,4.50
2023-04-15T16:06:01.610Z,4.50
2023-04-15T16:09:44.351Z,4.10
2023-04-15T16:13:26.989Z,4.10
2023-04-15T16:17:09.680Z,4.10
2023-04-15T16:20:52.285Z,3.50
2023-04-15T16:24:36.240Z,4.03
2023-04-15T16:28:26.366Z,3.53
2023-04-15T16:32:09.777Z,4.00
2023-04-15T16:35:52.679Z,3.57
2023-04-15T16:39:37.325Z,3.73
2023-04-15T16:43:21.295Z,3.03
2023-04-15T16:47:03.950Z,2.97
2023-04-15T16:50:46.625Z,3.07
2023-04-15T16:54:29.713Z,2.70
2023-04-15T16:58:13.685Z,2.50
2023-04-15T17:01:56.380Z,2.97
2023-04-15T17:05:39.093Z,2.50
2023-04-15T17:09:21.792Z,3.20
2023-04-15T17:13:04.453Z,3.23
2023-04-15T17:16:48.529Z,3.10
2023-04-15T17:20:31.185Z,3.00
2023-04-15T17:24:13.823Z,3.20
2023-04-15T17:27:56.589Z,3.50
2023-04-15T17:31:39.397Z,3.23
2023-04-15T17:35:25.560Z,4.20
2023-04-15T17:39:11.580Z,3.90
2023-04-15T17:42:54.704Z,3.63
2023-04-15T17:46:37.395Z,3.30
2023-04-15T17:50:20.280Z,3.63
2023-04-15T17:54:04.601Z,3.67
2023-04-15T17:57:47.535Z,4.30
2023-04-15T18:01:30.536Z,4.27
2023-04-15T18:05:13.201Z,4.97
2023-04-15T18:08:56.086Z,4.87
2023-04-15T18:12:40.068Z,3.63
2023-04-15T18:16:22.862Z,4.03
2023-04-15T18:20:06.103Z,4.23
2023-04-15T18:23:48.757Z,4.90
2023-04-15T18:27:32.075Z,4.47
2023-04-15T18:31:16.195Z,4.40
2023-04-15T18:34:58.924Z,4.60
2023-04-15T18:38:41.928Z,3.73
2023-04-15T18:42:24.802Z,4.17
2023-04-15T18:46:11.719Z,4.40
2023-04-15T18:49:55.881Z,4.50
2023-04-15T18:53:38.623Z,4.13
2023-04-15T18:57:23.361Z,4.13
2023-04-15T19:01:10.598Z,4.20
2023-04-15T19:04:55.962Z,4.10
2023-04-15T19:08:38.647Z,4.53
2023-04-15T19:12:21.345Z,4.57
2023-04-15T19:16:04.097Z,4.67
2023-04-15T19:19:46.813Z,5.00
2023-04-15T19:23:31.847Z,5.00
2023-04-15T19:27:14.604Z,4.67
2023-04-15T19:30:57.997Z,4.43
2023-04-15T19:34:40.779Z,4.87
2023-04-15T19:38:23.457Z,4.37
2023-04-15T19:42:07.509Z,4.30
2023-04-15T19:45:52.309Z,4.00
2023-04-15T19:49:35.065Z,3.87
2023-04-15T19:53:17.671Z,3.87
2023-04-15T19:57:01.455Z,3.93
2023-04-15T20:00:45.509Z,4.00
2023-04-15T20:04:28.336Z,4.13
2023-04-15T20:08:11.300Z,3.77
2023-04-15T20:12:48.243Z,3.97
2023-04-15T20:15:57.916Z,3.90
2023-04-15T20:19:40.638Z,3.63
2023-04-15T20:23:23.274Z,4.10
2023-04-15T20:27:06.141Z,4.30
2023-04-15T20:30:48.812Z,4.00
2023-04-15T20:34:32.763Z,4.17
2023-04-15T20:38:16.353Z,3.50
2023-04-15T20:41:59.081Z,3.37
2023-04-15T20:45:41.705Z,2.93
2023-04-15T20:49:24.402Z,3.30
2023-04-15T20:53:08.398Z,3.50
2023-04-15T20:56:51.028Z,3.70
2023-04-15T21:00:33.745Z,3.70
2023-04-15T21:04:16.441Z,3.53
2023-04-15T21:07:59.095Z,3.77
2023-04-15T21:12:00.423Z,3.70
2023-04-15T21:15:44.895Z,3.10
2023-04-15T21:19:27.519Z,3.57
2023-04-15T21:23:12.487Z,3.30
2023-04-15T21:26:57.613Z,3.70
2023-04-15T21:30:40.258Z,3.30
2023-04-15T21:34:22.877Z,3.60
2023-04-15T21:38:05.513Z,3.13
2023-04-15T21:41:48.128Z,3.57
2023-04-15T21:45:32.161Z,3.87
2023-04-15T21:49:14.841Z,3.27
2023-04-15T21:52:57.498Z,3.53
2023-04-15T21:56:40.108Z,3.37
2023-04-15T22:00:23.093Z,3.63
2023-04-15T22:04:07.472Z,3.07
2023-04-15T22:07:50.497Z,3.23
2023-04-15T22:11:33.150Z,2.80
2023-04-15T22:15:16.722Z,2.80
2023-04-15T22:18:59.443Z,3.10
2023-04-15T22:22:44.742Z,3.00
2023-04-15T22:26:27.559Z,2.50
2023-04-15T22:30:11.517Z,2.30
2023-04-15T22:33:54.097Z,2.07
2023-04-15T22:37:36.722Z,1.63
2023-04-15T22:41:20.686Z,1.50
2023-04-15T22:45:03.325Z,1.23
2023-04-15T22:48:45.952Z,1.50
2023-04-15T22:52:31.035Z,1.50
2023-04-15T22:56:14.078Z,1.80
2023-04-15T22:59:58.063Z,2.10
2023-04-15T23:03:55.839Z,2.77
2023-04-15T23:07:42.636Z,2.73
2023-04-15T23:11:25.238Z,2.43
2023-04-15T23:15:10.401Z,3.00
2023-04-15T23:18:53.030Z,2.83
2023-04-15T23:22:37.483Z,2.73
2023-04-15T23:26:20.087Z,2.40
2023-04-15T23:30:02.816Z,2.20
2023-04-15T23:33:46.788Z,2.40
2023-04-15T23:37:31.096Z,2.43
2023-04-15T23:41:14.507Z,2.63
2023-04-15T23:44:57.272Z,2.80
2023-04-15T23:48:40.626Z,2.97
2023-04-15T23:52:24.653Z,2.97
2023-04-15T23:56:07.745Z,3.10
2023-04-15T23:59:50.557Z,3.40
